LYBE/BEG METAR and TAF weather

Enter ICAO airport designator
Example: see airport list
Station Type Date Time Source
LYBE METAR 2016/08/27 01:00 UTC NOAA

LYBE 270100Z 15004KT CAVOK 18/14 Q1022 NOSIG


Station Type Date Time Source
LYBE Decoded METAR 2016/08/27 01:00 UTC NOAA

Beograd / Surcin, Serbia and Montenegro (LYBE) 44-49N 020-17E 99M
Aug 26, 2016 - 09:00 PM EDT / 2016.08.27 0100 UTC
Wind: from the SSE (150 degrees) at 5 MPH (4 KT):0
Visibility: greater than 7 mile(s):0
Temperature: 64 F (18 C)
Dew Point: 57 F (14 C)
Relative Humidity: 77%
Pressure (altimeter): 30.18 in. Hg (1022 hPa)
ob: LYBE 270100Z 15004KT CAVOK 18/14 Q1022 NOSIG
cycle: 1

Station Type Date Time Source
LYBE TAF 2016/08/26 18:21 UTC NOAA

TAF LYBE 261700Z 2618/2718 12006KT CAVOK TX31/2713Z TN16/2703Z
BECMG 2619/2621 14016KT